Time;durP1;ratioP1;P1;durP2;ratioP2;P2;SDS_P1;SDS_P2;PMS_P1;PMS_P2;Temp;Humidity;BMP_temperature;BMP_pressure;BME280_temperature;BME280_humidity;BME280_pressure;Samples;Min_cycle;Max_cycle;Signal;HPM_P1;HPM_P2
2023/02/03 00:01:35;;;;;;;9.15;2.63;;;8.70;99.90;;;;;;5001585;28;20668;-77
2023/02/03 00:04:00;;;;;;;8.77;2.15;;;8.70;99.90;;;;;;5019564;28;20094;-76
2023/02/03 00:06:26;;;;;;;8.98;2.90;;;8.70;99.90;;;;;;4989294;28;20068;-76
2023/02/03 00:08:55;;;;;;;7.30;2.13;;;8.80;99.90;;;;;;5005944;28;20435;-77
2023/02/03 00:11:21;;;;;;;8.55;2.35;;;8.80;99.90;;;;;;5023200;28;20045;-77
2023/02/03 00:13:47;;;;;;;9.82;2.53;;;8.80;99.90;;;;;;4989600;28;20071;-78
2023/02/03 00:16:13;;;;;;;9.18;2.20;;;8.80;99.90;;;;;;5000482;28;20772;-77
2023/02/03 00:18:39;;;;;;;7.38;2.08;;;8.80;99.90;;;;;;5007211;28;20083;-77
2023/02/03 00:21:05;;;;;;;8.93;2.05;;;8.80;99.90;;;;;;4990889;28;20049;-76
2023/02/03 00:23:31;;;;;;;11.20;2.63;;;8.80;99.90;;;;;;5007328;28;20044;-78
2023/02/03 00:26:11;;;;;;;6.78;2.30;;;8.90;99.90;;;;;;4995693;28;20087;-76
2023/02/03 00:28:37;;;;;;;7.95;1.83;;;8.80;99.90;;;;;;5017380;28;20127;-78
2023/02/03 00:31:04;;;;;;;8.27;1.88;;;8.80;99.90;;;;;;5003385;28;20566;-78
2023/02/03 00:33:32;;;;;;;7.35;2.45;;;8.80;99.90;;;;;;5007906;28;20041;-77
2023/02/03 00:36:04;;;;;;;7.32;1.83;;;8.80;99.90;;;;;;5007922;28;20045;-76
2023/02/03 00:38:30;;;;;;;6.85;1.90;;;8.80;99.90;;;;;;5008233;28;20041;-77
2023/02/03 00:40:58;;;;;;;9.20;2.03;;;8.90;99.90;;;;;;4976479;28;20041;-78
2023/02/03 00:43:24;;;;;;;10.93;2.38;;;8.90;99.90;;;;;;5023056;28;20048;-76
2023/02/03 00:45:50;;;;;;;11.70;2.42;;;8.80;99.90;;;;;;5023004;28;20056;-77
2023/02/03 00:48:15;;;;;;;9.13;2.17;;;8.80;99.90;;;;;;5005477;28;20037;-77
2023/02/03 00:50:44;;;;;;;8.85;2.38;;;8.80;99.90;;;;;;5005889;28;20099;-76
2023/02/03 00:53:10;;;;;;;9.02;2.08;;;8.80;99.90;;;;;;5022057;28;20619;-78
2023/02/03 00:55:36;;;;;;;11.00;2.78;;;8.80;99.90;;;;;;4991652;28;20116;-76
2023/02/03 00:58:01;;;;;;;8.52;2.30;;;8.80;99.90;;;;;;5005835;28;20076;-74
2023/02/03 01:00:27;;;;;;;14.88;3.10;;;8.80;99.90;;;;;;5004134;28;20045;-79
2023/02/03 01:02:53;;;;;;;9.27;2.50;;;8.80;99.90;;;;;;4981267;28;20052;-77
2023/02/03 01:05:19;;;;;;;12.77;3.10;;;8.80;99.90;;;;;;5010024;28;20048;-76
2023/02/03 01:07:45;;;;;;;11.32;2.60;;;8.80;99.90;;;;;;5024665;28;20036;-77
2023/02/03 01:10:11;;;;;;;12.18;3.00;;;8.80;99.90;;;;;;5024690;28;20063;-78
2023/02/03 01:12:36;;;;;;;10.48;3.10;;;8.80;99.90;;;;;;5003311;28;20051;-78
2023/02/03 01:15:07;;;;;;;9.88;3.03;;;8.80;99.90;;;;;;5026861;28;20037;-77
2023/02/03 01:17:32;;;;;;;;;;;8.80;99.90;;;;;;5005751;28;20772;-77
2023/02/03 01:19:58;;;;;;;13.20;3.05;;;8.80;99.90;;;;;;5021430;28;19960;-77
2023/02/03 01:22:24;;;;;;;8.52;2.53;;;8.80;99.90;;;;;;5026003;28;20075;-76
2023/02/03 01:24:50;;;;;;;10.32;3.15;;;8.80;99.90;;;;;;5027406;28;20045;-77
2023/02/03 01:27:16;;;;;;;11.48;3.25;;;8.80;99.90;;;;;;4985412;28;20053;-76
2023/02/03 01:29:41;;;;;;;8.85;2.70;;;8.80;99.90;;;;;;4977626;28;20051;-76
2023/02/03 01:32:07;;;;;;;12.82;3.35;;;8.80;99.90;;;;;;5022738;28;20055;-77
2023/02/03 01:34:33;;;;;;;12.88;3.42;;;8.80;99.90;;;;;;5020849;28;20115;-77
2023/02/03 01:36:58;;;;;;;10.35;3.03;;;8.80;99.90;;;;;;5020612;28;20098;-76
2023/02/03 01:39:25;;;;;;;11.85;3.20;;;8.80;99.90;;;;;;5024083;28;20045;-76
2023/02/03 01:41:51;;;;;;;12.18;3.15;;;8.80;99.90;;;;;;5025581;28;20182;-76
2023/02/03 01:44:40;;;;;;;10.55;3.08;;;8.80;99.90;;;;;;5005973;28;20751;-70
2023/02/03 01:47:14;;;;;;;15.10;2.95;;;8.80;99.90;;;;;;5005303;28;20053;-70
2023/02/03 01:49:43;;;;;;;10.10;3.28;;;8.80;99.90;;;;;;5022326;28;20737;-70
2023/02/03 01:52:10;;;;;;;11.05;2.78;;;8.70;99.90;;;;;;5023971;28;20125;-70
2023/02/03 01:54:44;;;;;;;9.65;2.92;;;8.70;99.90;;;;;;4987337;28;20042;-71
2023/02/03 01:57:15;;;;;;;9.57;3.08;;;8.80;99.90;;;;;;5023419;28;20098;-76
2023/02/03 01:59:42;;;;;;;10.93;3.13;;;8.80;99.90;;;;;;5008673;28;20094;-77
2023/02/03 02:02:09;;;;;;;9.88;3.00;;;8.80;99.90;;;;;;5008401;28;20049;-77
2023/02/03 02:04:54;;;;;;;10.90;3.13;;;8.80;99.90;;;;;;5006153;28;20041;-77
2023/02/03 02:07:20;;;;;;;10.82;3.05;;;8.80;99.90;;;;;;5017950;28;20507;-76
2023/02/03 02:09:47;;;;;;;11.98;3.85;;;8.80;99.90;;;;;;5006476;28;20057;-78
2023/02/03 02:12:13;;;;;;;8.35;2.78;;;8.80;99.90;;;;;;5016643;28;20465;-76
2023/02/03 02:14:41;;;;;;;11.75;3.10;;;8.80;99.90;;;;;;5019196;28;20048;-77
2023/02/03 02:17:31;;;;;;;12.80;3.20;;;8.80;99.90;;;;;;5015573;28;20036;-77
2023/02/03 02:20:25;;;;;;;9.88;3.00;;;8.80;99.90;;;;;;5014291;28;20049;-76
2023/02/03 02:23:21;;;;;;;10.55;2.72;;;8.80;99.90;;;;;;5013039;28;20102;-78
2023/02/03 02:26:21;;;;;;;10.45;2.55;;;8.80;99.90;;;;;;5014773;28;20049;-77
2023/02/03 02:29:08;;;;;;;13.07;2.88;;;8.80;99.90;;;;;;4987606;28;20124;-78
2023/02/03 02:31:55;;;;;;;10.32;2.75;;;8.90;99.90;;;;;;5009629;28;20041;-77
2023/02/03 02:34:52;;;;;;;11.85;2.67;;;8.90;99.90;;;;;;4994798;28;20045;-78
2023/02/03 02:37:47;;;;;;;8.57;2.30;;;9.00;99.90;;;;;;5010458;28;20442;-71
2023/02/03 02:40:31;;;;;;;11.38;2.38;;;9.00;99.90;;;;;;5009167;28;20060;-70
2023/02/03 02:43:24;;;;;;;7.60;2.10;;;9.00;99.90;;;;;;5026314;28;20132;-70
2023/02/03 02:45:58;;;;;;;6.80;2.10;;;9.00;99.90;;;;;;4988633;28;20061;-70
2023/02/03 02:48:31;;;;;;;10.13;2.60;;;9.00;99.90;;;;;;4992206;28;20041;-71
2023/02/03 02:50:58;;;;;;;9.50;2.17;;;9.00;99.90;;;;;;5009048;28;20087;-71
2023/02/03 02:53:28;;;;;;;9.07;2.55;;;9.00;99.90;;;;;;5010780;28;20048;-76
2023/02/03 02:55:56;;;;;;;12.20;2.85;;;9.10;99.90;;;;;;4975763;28;20049;-78
2023/02/03 02:58:26;;;;;;;10.85;3.10;;;9.10;99.90;;;;;;5009598;28;20638;-77
2023/02/03 03:00:51;;;;;;;9.65;2.33;;;9.10;99.90;;;;;;4977747;28;20075;-77
2023/02/03 03:03:20;;;;;;;9.98;2.45;;;9.10;99.90;;;;;;4992982;28;20735;-77
2023/02/03 03:06:26;;;;;;;11.55;3.35;;;9.20;99.90;;;;;;5017814;28;20045;-78
2023/02/03 03:09:01;;;;;;;11.15;2.53;;;9.10;99.90;;;;;;5009892;28;20514;-76
2023/02/03 03:11:32;;;;;;;10.77;2.03;;;9.10;99.90;;;;;;5006955;28;20048;-78
2023/02/03 03:14:00;;;;;;;12.23;2.50;;;9.10;99.90;;;;;;5009492;28;21268;-78
2023/02/03 03:16:29;;;;;;;8.45;2.67;;;9.10;99.90;;;;;;4987325;28;20037;-76
2023/02/03 03:19:00;;;;;;;9.27;2.60;;;9.10;99.90;;;;;;5009953;28;20041;-78
2023/02/03 03:21:33;;;;;;;10.27;2.70;;;9.10;99.90;;;;;;4993406;28;21529;-78
2023/02/03 03:24:04;;;;;;;11.68;3.15;;;9.10;99.90;;;;;;5004312;28;20061;-78
2023/02/03 03:26:46;;;;;;;9.55;2.72;;;9.10;99.90;;;;;;4995763;28;20114;-78
2023/02/03 03:29:25;;;;;;;11.25;2.88;;;9.10;99.90;;;;;;4994542;28;20040;-77
2023/02/03 03:31:52;;;;;;;8.82;2.50;;;9.10;99.90;;;;;;5009192;28;20055;-76
2023/02/03 03:34:21;;;;;;;11.68;2.88;;;9.10;99.90;;;;;;4990196;28;20185;-76
2023/02/03 03:37:07;;;;;;;10.98;3.40;;;9.10;99.90;;;;;;4994379;28;20131;-70
2023/02/03 03:39:36;;;;;;;10.07;2.13;;;9.10;99.90;;;;;;5010445;28;20049;-70
2023/02/03 03:42:47;;;;;;;8.95;1.92;;;9.10;99.90;;;;;;5010741;28;20098;-76
2023/02/03 03:45:24;;;;;;;11.10;2.83;;;9.10;99.90;;;;;;5024151;28;20060;-75
2023/02/03 03:48:04;;;;;;;10.93;2.58;;;9.10;99.90;;;;;;4994062;28;20083;-78
2023/02/03 03:50:39;;;;;;;11.82;2.35;;;9.10;99.90;;;;;;5010721;28;20630;-75
2023/02/03 03:53:07;;;;;;;9.23;2.70;;;9.10;99.90;;;;;;5008455;28;20083;-78
2023/02/03 03:55:35;;;;;;;10.48;3.05;;;9.20;99.90;;;;;;4993611;28;20812;-77
2023/02/03 03:58:09;;;;;;;10.30;2.97;;;9.20;99.90;;;;;;5011988;28;20054;-71
2023/02/03 04:00:40;;;;;;;11.60;2.50;;;9.20;99.90;;;;;;5007022;28;20065;-72
2023/02/03 04:03:20;;;;;;;13.07;3.22;;;9.20;99.90;;;;;;5012346;28;20057;-71
2023/02/03 04:05:46;;;;;;;8.82;2.22;;;9.20;99.90;;;;;;5010054;28;20396;-72
2023/02/03 04:08:12;;;;;;;10.35;2.67;;;9.20;99.90;;;;;;5011559;28;20052;-77
2023/02/03 04:10:40;;;;;;;11.90;2.80;;;9.10;99.90;;;;;;4978974;28;20494;-78
2023/02/03 04:13:08;;;;;;;14.18;2.88;;;9.20;99.90;;;;;;4993786;28;20193;-77
2023/02/03 04:15:35;;;;;;;9.77;2.50;;;9.20;99.90;;;;;;4995384;28;20064;-78
2023/02/03 04:18:01;;;;;;;8.75;2.60;;;9.20;99.90;;;;;;5010457;28;20076;-78
2023/02/03 04:20:28;;;;;;;12.23;3.03;;;9.10;99.90;;;;;;5012339;28;20107;-76
2023/02/03 04:22:55;;;;;;;10.43;3.00;;;9.10;99.90;;;;;;4993783;28;20052;-74
2023/02/03 04:25:21;;;;;;;7.72;2.30;;;9.10;99.90;;;;;;5012973;28;20063;-71
2023/02/03 04:27:47;;;;;;;11.35;2.90;;;9.10;99.90;;;;;;5013654;28;20041;-71
2023/02/03 04:30:17;;;;;;;10.75;2.45;;;9.10;99.90;;;;;;4997262;28;21450;-72
2023/02/03 04:32:44;;;;;;;10.55;2.33;;;9.10;99.90;;;;;;5014365;28;20438;-71
2023/02/03 04:35:10;;;;;;;11.52;2.80;;;9.20;99.90;;;;;;4998042;28;20056;-71
2023/02/03 04:37:36;;;;;;;11.13;2.63;;;9.20;99.90;;;;;;5031290;28;20752;-72
2023/02/03 04:40:02;;;;;;;12.00;3.00;;;9.20;99.90;;;;;;4995597;28;20056;-78
2023/02/03 04:42:28;;;;;;;9.00;2.35;;;9.20;99.90;;;;;;4996797;28;20048;-77
2023/02/03 04:44:53;;;;;;;11.98;2.70;;;9.20;99.90;;;;;;4965568;28;20044;-78
2023/02/03 04:47:19;;;;;;;9.30;2.50;;;9.20;99.90;;;;;;5014030;28;20103;-78
2023/02/03 04:49:48;;;;;;;11.57;2.58;;;9.20;99.90;;;;;;5013837;28;20048;-79
2023/02/03 04:52:14;;;;;;;14.27;2.80;;;9.20;99.90;;;;;;4981544;28;21588;-78
2023/02/03 04:54:39;;;;;;;13.25;2.53;;;9.20;99.90;;;;;;4981627;28;20041;-78
2023/02/03 04:57:06;;;;;;;14.07;2.25;;;9.20;99.90;;;;;;5013995;28;20401;-78
2023/02/03 04:59:32;;;;;;;12.23;2.80;;;9.20;99.90;;;;;;4997802;28;20057;-78
2023/02/03 05:02:03;;;;;;;11.93;3.58;;;9.10;99.90;;;;;;5008098;28;20044;-78
2023/02/03 05:04:30;;;;;;;13.57;3.33;;;9.10;99.90;;;;;;5002276;28;20053;-77
2023/02/03 05:06:56;;;;;;;12.63;2.85;;;9.10;99.90;;;;;;5011212;28;20056;-77
2023/02/03 05:09:23;;;;;;;14.32;3.00;;;9.20;99.90;;;;;;4977737;28;20064;-78
2023/02/03 05:11:53;;;;;;;9.25;2.45;;;9.10;99.90;;;;;;5011414;28;20076;-78
2023/02/03 05:14:19;;;;;;;12.32;2.92;;;9.20;99.90;;;;;;5022277;28;20124;-77
2023/02/03 05:16:45;;;;;;;10.98;2.55;;;9.10;99.90;;;;;;5009345;28;20130;-75
2023/02/03 05:19:11;;;;;;;13.48;2.63;;;9.10;99.90;;;;;;5001873;28;20467;-77
2023/02/03 05:21:36;;;;;;;9.95;2.58;;;9.20;99.90;;;;;;4996739;28;20052;-76
2023/02/03 05:24:05;;;;;;;10.40;3.63;;;9.10;99.90;;;;;;4994153;28;20552;-77
2023/02/03 05:26:31;;;;;;;14.68;3.05;;;9.10;99.90;;;;;;5010872;28;20041;-76
2023/02/03 05:28:57;;;;;;;11.55;2.83;;;9.20;99.90;;;;;;4991975;28;20476;-71
2023/02/03 05:31:23;;;;;;;13.57;2.88;;;9.10;99.90;;;;;;5006653;28;20169;-70
2023/02/03 05:33:49;;;;;;;10.85;2.78;;;9.10;99.90;;;;;;5011406;28;20923;-72
2023/02/03 05:36:15;;;;;;;9.75;2.42;;;9.10;99.90;;;;;;4991494;28;20045;-70
2023/02/03 05:38:41;;;;;;;12.18;3.05;;;9.10;99.90;;;;;;5009919;28;20424;-70
2023/02/03 05:43:54;;;;;;;11.80;2.90;;;9.10;99.90;;;;;;5015419;28;20084;-70
2023/02/03 05:46:20;;;;;;;8.90;2.78;;;9.10;99.90;;;;;;5000306;28;20470;-79
2023/02/03 05:48:46;;;;;;;12.88;3.22;;;9.10;99.90;;;;;;4995716;28;20041;-78
2023/02/03 05:51:12;;;;;;;13.40;3.97;;;9.10;99.90;;;;;;5016677;28;20204;-76
2023/02/03 05:53:38;;;;;;;12.35;2.90;;;9.10;99.90;;;;;;4992940;28;20365;-71
2023/02/03 05:56:04;;;;;;;11.25;3.20;;;9.10;99.90;;;;;;4985571;28;20045;-71
2023/02/03 05:58:30;;;;;;;10.57;2.97;;;9.20;99.90;;;;;;5008560;28;20048;-70
2023/02/03 06:00:56;;;;;;;12.63;2.97;;;9.20;99.90;;;;;;5011536;28;20057;-70
2023/02/03 06:03:22;;;;;;;10.55;2.65;;;9.20;99.90;;;;;;4981955;28;20250;-78
2023/02/03 06:05:47;;;;;;;8.15;2.53;;;9.20;99.90;;;;;;5014878;28;20145;-77
2023/02/03 06:08:14;;;;;;;12.27;3.28;;;9.30;99.90;;;;;;5029444;28;20063;-76
2023/02/03 06:10:39;;;;;;;11.60;3.10;;;9.30;99.90;;;;;;4997251;28;20194;-78
2023/02/03 06:13:11;;;;;;;13.75;3.28;;;9.30;99.90;;;;;;5022276;28;20602;-78
2023/02/03 06:15:38;;;;;;;13.85;3.53;;;9.30;99.90;;;;;;5013972;28;20063;-78
2023/02/03 06:18:04;;;;;;;10.45;3.03;;;9.40;99.90;;;;;;5006812;28;20053;-77
2023/02/03 06:20:33;;;;;;;11.10;3.35;;;9.40;99.90;;;;;;5009683;28;20057;-77
2023/02/03 06:22:59;;;;;;;11.83;3.47;;;9.40;99.90;;;;;;4987311;28;20064;-77
2023/02/03 06:25:26;;;;;;;11.25;3.60;;;9.40;99.90;;;;;;5008733;28;20068;-78
2023/02/03 06:27:51;;;;;;;10.15;3.53;;;9.50;99.90;;;;;;4996495;28;20045;-78
2023/02/03 06:30:22;;;;;;;12.10;3.70;;;9.50;99.90;;;;;;4996349;28;20056;-77
2023/02/03 06:32:48;;;;;;;10.82;3.63;;;9.50;99.90;;;;;;4996475;28;20476;-77
2023/02/03 06:35:14;;;;;;;15.85;3.75;;;9.50;99.90;;;;;;4994988;28;20464;-78
2023/02/03 06:37:40;;;;;;;15.00;3.60;;;9.50;99.90;;;;;;5005525;28;20125;-77
2023/02/03 06:40:06;;;;;;;10.93;2.80;;;9.40;99.90;;;;;;5003185;28;20072;-73
2023/02/03 06:42:32;;;;;;;13.50;3.58;;;9.50;99.90;;;;;;4998616;28;20184;-79
2023/02/03 06:44:58;;;;;;;15.63;4.03;;;9.50;99.90;;;;;;4998400;28;20077;-78
2023/02/03 06:47:24;;;;;;;14.00;3.55;;;9.50;99.90;;;;;;4992531;28;21415;-72
2023/02/03 06:49:51;;;;;;;13.13;3.88;;;9.50;99.90;;;;;;4996959;28;20049;-71
2023/02/03 06:52:17;;;;;;;9.32;3.03;;;9.50;99.90;;;;;;5027176;28;20072;-79
2023/02/03 06:54:43;;;;;;;14.05;3.80;;;9.50;99.90;;;;;;5012520;28;20045;-78
2023/02/03 06:57:09;;;;;;;12.23;3.13;;;9.50;99.90;;;;;;5013966;28;20064;-79
2023/02/03 06:59:35;;;;;;;11.65;3.10;;;9.60;99.90;;;;;;5009760;28;20048;-79
2023/02/03 07:02:01;;;;;;;16.00;4.80;;;9.50;99.90;;;;;;4986509;28;20439;-79
2023/02/03 07:04:28;;;;;;;10.02;3.22;;;9.60;99.90;;;;;;4976819;28;20042;-80
2023/02/03 07:07:04;;;;;;;13.70;3.80;;;9.50;99.90;;;;;;5008716;28;20057;-79
2023/02/03 07:09:29;;;;;;;17.67;5.00;;;9.50;99.90;;;;;;4993700;28;20518;-79
2023/02/03 07:11:55;;;;;;;15.05;3.40;;;9.50;99.90;;;;;;5009316;28;20123;-78
2023/02/03 07:14:24;;;;;;;11.95;3.53;;;9.50;99.90;;;;;;4994527;28;20041;-76
2023/02/03 07:16:50;;;;;;;14.68;3.58;;;9.50;99.90;;;;;;4994494;28;20052;-79
2023/02/03 07:19:15;;;;;;;14.90;3.70;;;9.50;99.90;;;;;;5010901;28;20072;-78
2023/02/03 07:21:41;;;;;;;16.33;4.00;;;9.50;99.90;;;;;;4996567;28;20041;-78
2023/02/03 07:24:07;;;;;;;14.40;3.97;;;9.50;99.90;;;;;;4991881;28;20041;-78
2023/02/03 07:26:33;;;;;;;14.90;4.00;;;9.50;99.90;;;;;;4997282;28;20049;-78
2023/02/03 07:28:59;;;;;;;13.60;3.35;;;9.40;99.90;;;;;;4982262;28;20394;-75
2023/02/03 07:31:25;;;;;;;13.32;4.03;;;9.40;99.90;;;;;;4988051;28;20164;-78
2023/02/03 07:33:51;;;;;;;15.35;4.75;;;9.40;99.90;;;;;;5001442;28;20056;-79
2023/02/03 07:36:17;;;;;;;13.98;3.83;;;9.30;99.90;;;;;;4996803;28;20344;-77
2023/02/03 07:38:43;;;;;;;17.05;4.95;;;9.30;99.90;;;;;;4977716;28;20666;-77
2023/02/03 07:41:09;;;;;;;14.18;4.72;;;9.30;99.90;;;;;;5006773;28;20114;-80
2023/02/03 07:43:34;;;;;;;14.05;3.33;;;9.30;99.90;;;;;;5006321;28;20076;-78
2023/02/03 07:46:01;;;;;;;16.10;4.30;;;9.30;99.90;;;;;;5009750;28;20045;-78
2023/02/03 07:48:27;;;;;;;15.02;3.92;;;9.30;99.90;;;;;;4990875;28;20402;-78
2023/02/03 07:50:55;;;;;;;15.63;3.95;;;9.30;99.90;;;;;;4990705;28;20103;-79
2023/02/03 07:53:21;;;;;;;13.60;4.22;;;9.40;99.90;;;;;;4993198;28;20083;-79
2023/02/03 07:55:47;;;;;;;16.48;3.67;;;9.40;99.90;;;;;;4991494;28;20505;-79
2023/02/03 07:58:13;;;;;;;12.57;3.70;;;9.50;99.90;;;;;;4994397;28;20083;-77
2023/02/03 08:00:39;;;;;;;16.33;5.15;;;9.50;99.90;;;;;;4958560;28;20069;-77
2023/02/03 08:03:05;;;;;;;17.52;4.20;;;9.50;99.90;;;;;;4979021;28;20419;-78
2023/02/03 08:05:31;;;;;;;14.52;4.75;;;9.50;99.90;;;;;;4989966;28;20766;-73
2023/02/03 08:07:58;;;;;;;16.75;4.32;;;9.40;99.90;;;;;;4976601;28;20448;-78
2023/02/03 08:10:24;;;;;;;16.85;4.20;;;9.40;99.90;;;;;;4992148;28;20095;-75
2023/02/03 08:12:54;;;;;;;16.63;4.85;;;9.40;99.90;;;;;;4997443;28;20072;-77
2023/02/03 08:15:20;;;;;;;16.58;3.97;;;9.30;99.90;;;;;;4977608;28;20050;-78
2023/02/03 08:17:45;;;;;;;17.90;4.70;;;9.40;99.90;;;;;;4948662;28;20057;-77
2023/02/03 08:20:12;;;;;;;14.82;4.03;;;9.30;99.90;;;;;;4987589;28;20057;-78
2023/02/03 08:22:38;;;;;;;17.10;4.93;;;9.30;99.90;;;;;;5004926;28;20500;-78
2023/02/03 08:25:04;;;;;;;15.65;3.95;;;9.30;99.90;;;;;;4977633;28;20057;-78
2023/02/03 08:27:31;;;;;;;17.88;4.88;;;9.30;99.90;;;;;;4970039;28;20073;-73
2023/02/03 08:29:58;;;;;;;14.70;4.20;;;9.40;99.90;;;;;;4972163;28;21144;-78
2023/02/03 08:32:23;;;;;;;17.75;4.10;;;9.40;99.90;;;;;;4993545;28;20416;-78
2023/02/03 08:34:50;;;;;;;18.38;4.90;;;9.40;99.90;;;;;;4971712;28;20053;-79
2023/02/03 08:37:18;;;;;;;18.80;4.28;;;9.40;99.90;;;;;;4990948;28;20050;-78
2023/02/03 08:39:44;;;;;;;13.43;4.95;;;9.30;99.90;;;;;;4975028;28;20053;-79
2023/02/03 08:42:10;;;;;;;16.80;4.22;;;9.30;99.90;;;;;;4991834;28;20049;-77
2023/02/03 08:44:38;;;;;;;16.65;5.28;;;9.30;99.90;;;;;;4959689;28;20470;-77
2023/02/03 08:47:05;;;;;;;15.98;4.05;;;9.40;99.90;;;;;;4975391;28;20590;-78
2023/02/03 08:49:31;;;;;;;18.15;4.68;;;9.40;99.90;;;;;;4991044;28;20137;-76
2023/02/03 08:51:58;;;;;;;14.38;4.40;;;9.40;99.90;;;;;;5006920;28;20113;-79
2023/02/03 08:54:24;;;;;;;18.38;4.05;;;9.40;99.90;;;;;;4992061;28;20056;-78
2023/02/03 08:56:50;;;;;;;19.85;5.43;;;9.40;99.90;;;;;;4985097;28;20052;-78
2023/02/03 08:59:16;;;;;;;19.33;4.55;;;9.50;99.90;;;;;;4970794;28;20069;-78
2023/02/03 09:01:44;;;;;;;17.48;4.93;;;9.50;99.90;;;;;;4991156;28;20201;-79
2023/02/03 09:04:11;;;;;;;18.05;4.20;;;9.50;99.90;;;;;;4993630;28;20081;-78
2023/02/03 09:06:38;;;;;;;17.33;4.80;;;9.50;99.90;;;;;;5008032;28;20049;-81
2023/02/03 09:09:04;;;;;;;15.48;4.63;;;9.60;99.90;;;;;;4992237;28;20040;-75
2023/02/03 09:11:30;;;;;;;17.10;4.53;;;9.50;99.90;;;;;;4994880;28;20049;-79
2023/02/03 09:13:56;;;;;;;19.80;4.78;;;9.50;99.90;;;;;;4992925;28;20585;-78
2023/02/03 09:16:24;;;;;;;18.13;4.78;;;9.50;99.90;;;;;;4977375;28;20503;-77
2023/02/03 09:18:50;;;;;;;17.02;4.53;;;9.50;99.90;;;;;;4995292;28;20051;-79
2023/02/03 09:21:16;;;;;;;16.98;4.50;;;9.50;99.90;;;;;;5008928;28;20068;-74
2023/02/03 09:23:43;;;;;;;19.02;4.80;;;9.50;99.90;;;;;;4992945;28;20246;-74
2023/02/03 09:26:12;;;;;;;19.05;4.53;;;9.60;99.90;;;;;;4995285;28;20053;-77
2023/02/03 09:28:38;;;;;;;22.00;5.30;;;9.60;99.90;;;;;;5010876;28;20044;-82
2023/02/03 09:31:10;;;;;;;21.70;5.65;;;9.60;99.90;;;;;;4993516;28;20072;-76
2023/02/03 09:33:37;;;;;;;22.00;6.13;;;9.70;99.90;;;;;;5011366;28;20132;-77
2023/02/03 09:36:05;;;;;;;22.90;5.78;;;9.60;99.90;;;;;;5009231;28;20057;-76
2023/02/03 09:38:31;;;;;;;19.13;5.07;;;9.70;99.90;;;;;;5011209;28;20052;-77
2023/02/03 09:41:23;;;;;;;21.33;5.43;;;9.70;99.90;;;;;;5008312;28;20051;-76
2023/02/03 09:44:21;;;;;;;26.27;6.20;;;9.70;99.90;;;;;;4994401;28;20470;-82
2023/02/03 09:46:53;;;;;;;22.05;6.07;;;9.70;99.90;;;;;;4992083;28;20588;-80
2023/02/03 09:49:54;;;;;;;20.92;4.95;;;9.70;99.90;;;;;;4990155;28;20872;-78
2023/02/03 09:52:27;;;;;;;23.15;5.63;;;9.70;99.90;;;;;;5010836;28;20542;-78
2023/02/03 09:55:32;;;;;;;22.73;5.70;;;9.70;99.90;;;;;;5008993;28;20571;-76
2023/02/03 09:58:07;;;;;;;28.80;7.03;;;9.70;99.90;;;;;;5008061;28;20795;-82
2023/02/03 10:00:58;;;;;;;23.27;5.65;;;9.70;99.90;;;;;;5006547;28;20321;-78
2023/02/03 10:03:41;;;;;;;27.45;5.93;;;9.70;99.90;;;;;;5015860;28;20064;-78
2023/02/03 10:06:09;;;;;;;23.55;5.95;;;9.70;99.90;;;;;;4993426;28;20053;-82
2023/02/03 10:09:06;;;;;;;23.88;6.25;;;9.70;99.90;;;;;;5009046;28;20151;-76
2023/02/03 10:12:00;;;;;;;26.48;7.15;;;9.70;99.90;;;;;;5006226;28;20131;-81
2023/02/03 10:14:28;;;;;;;23.42;5.53;;;9.80;99.90;;;;;;5008928;28;20082;-77
2023/02/03 10:17:21;;;;;;;23.23;5.82;;;9.80;99.90;;;;;;5005864;28;20364;-76
2023/02/03 10:20:10;;;;;;;26.25;6.60;;;9.80;99.90;;;;;;5008532;28;20037;-76
2023/02/03 10:22:49;;;;;;;26.73;6.05;;;9.80;99.90;;;;;;5008330;28;21518;-78
2023/02/03 10:25:40;;;;;;;27.75;6.40;;;9.80;99.90;;;;;;4990404;28;20380;-75
2023/02/03 10:28:18;;;;;;;23.75;6.40;;;9.80;99.90;;;;;;5007607;28;20107;-76
2023/02/03 10:30:53;;;;;;;28.95;6.45;;;9.80;99.90;;;;;;4994535;28;20059;-77
2023/02/03 10:33:19;;;;;;;24.83;6.10;;;9.80;99.90;;;;;;5009350;28;20136;-76
2023/02/03 10:36:21;;;;;;;22.90;5.57;;;9.80;99.90;;;;;;5010987;28;20080;-75
2023/02/03 10:38:47;;;;;;;26.45;6.22;;;9.80;99.90;;;;;;5005637;28;20377;-76
2023/02/03 10:41:15;;;;;;;26.95;6.72;;;9.80;99.90;;;;;;4992543;28;20051;-74
2023/02/03 10:43:47;;;;;;;28.20;7.38;;;9.80;99.90;;;;;;4993257;28;21310;-78
2023/02/03 10:46:14;;;;;;;19.17;5.72;;;9.80;99.90;;;;;;4989806;28;20756;-75
2023/02/03 10:48:40;;;;;;;26.80;7.05;;;9.80;99.90;;;;;;4993129;28;20503;-76
2023/02/03 10:51:18;;;;;;;28.83;6.40;;;9.80;99.90;;;;;;5011058;28;20133;-77
2023/02/03 10:53:45;;;;;;;25.13;6.22;;;9.90;99.90;;;;;;5010747;28;20126;-79
2023/02/03 10:56:13;;;;;;;28.67;6.80;;;9.90;99.90;;;;;;5010638;28;20789;-78
2023/02/03 10:58:47;;;;;;;25.90;6.65;;;9.90;99.90;;;;;;5008640;28;20445;-76
2023/02/03 11:01:15;;;;;;;26.95;6.40;;;10.00;99.90;;;;;;5008918;28;20083;-77
2023/02/03 11:03:52;;;;;;;23.75;6.32;;;10.00;99.90;;;;;;5009222;28;20072;-78
2023/02/03 11:06:18;;;;;;;22.25;6.35;;;10.00;99.90;;;;;;5006512;28;20053;-79
2023/02/03 11:08:49;;;;;;;25.02;6.65;;;10.00;99.90;;;;;;5010115;28;20099;-77
2023/02/03 11:11:25;;;;;;;26.50;6.40;;;10.00;99.90;;;;;;5006265;28;20284;-79
2023/02/03 11:14:03;;;;;;;36.67;8.48;;;10.00;99.90;;;;;;4991591;28;20044;-74
2023/02/03 11:16:32;;;;;;;29.73;7.50;;;10.10;99.90;;;;;;5010044;28;20994;-79
2023/02/03 11:19:20;;;;;;;29.58;6.82;;;10.10;99.90;;;;;;4992998;28;20045;-74
2023/02/03 11:21:55;;;;;;;28.38;6.65;;;10.10;99.90;;;;;;4992660;28;20568;-75
2023/02/03 11:24:31;;;;;;;32.70;7.72;;;10.10;99.90;;;;;;4990965;28;20060;-78
2023/02/03 11:27:08;;;;;;;30.08;7.03;;;10.00;99.90;;;;;;5001600;28;20106;-75
2023/02/03 11:29:41;;;;;;;28.38;6.53;;;10.00;99.90;;;;;;5008851;28;20052;-73
2023/02/03 11:32:13;;;;;;;31.25;6.88;;;10.00;99.90;;;;;;4982630;28;20047;-79
2023/02/03 11:34:45;;;;;;;26.40;6.88;;;10.00;99.90;;;;;;5007508;28;20041;-78
2023/02/03 11:37:25;;;;;;;29.33;6.95;;;10.00;99.90;;;;;;4993663;28;20060;-75
2023/02/03 11:39:55;;;;;;;31.48;7.82;;;10.00;99.90;;;;;;4991717;28;20045;-79
2023/02/03 11:42:24;;;;;;;27.42;6.15;;;9.90;99.90;;;;;;4993066;28;20052;-77
2023/02/03 11:44:50;;;;;;;36.85;8.82;;;9.90;99.90;;;;;;5010034;28;20041;-75
2023/02/03 11:47:17;;;;;;;32.22;7.90;;;9.90;99.90;;;;;;4970639;28;20037;-75
2023/02/03 11:50:12;;;;;;;33.80;7.65;;;9.90;99.90;;;;;;4991164;28;20222;-75
2023/02/03 11:52:45;;;;;;;27.73;6.82;;;9.90;99.90;;;;;;4989772;28;20826;-77
2023/02/03 11:55:42;;;;;;;33.05;8.07;;;9.90;99.90;;;;;;5006920;28;20053;-76
2023/02/03 11:58:27;;;;;;;28.05;7.30;;;9.90;99.90;;;;;;4996383;28;20420;-76
2023/02/03 12:01:06;;;;;;;32.63;8.20;;;9.90;99.90;;;;;;5009853;28;20060;-81
2023/02/03 12:04:04;;;;;;;32.10;9.50;;;9.90;99.90;;;;;;4996125;28;20252;-80
2023/02/03 12:06:40;;;;;;;36.50;8.52;;;9.80;99.90;;;;;;4991620;28;20093;-81
2023/02/03 12:09:10;;;;;;;25.85;7.40;;;9.80;99.90;;;;;;4989534;28;20116;-79
2023/02/03 12:12:05;;;;;;;29.25;8.43;;;9.80;99.90;;;;;;4981310;28;20087;-76
2023/02/03 12:14:40;;;;;;;30.98;7.25;;;9.80;99.90;;;;;;4987211;28;20073;-77
2023/02/03 12:17:47;;;;;;;27.02;6.10;;;9.80;99.90;;;;;;5008101;28;20045;-76
2023/02/03 12:21:06;;;;;;;26.83;6.80;;;9.80;99.90;;;;;;4985792;28;20061;-76
2023/02/03 12:23:57;;;;;;;24.02;6.38;;;9.80;99.90;;;;;;4988715;28;20057;-76
2023/02/03 12:26:45;;;;;;;25.60;6.20;;;9.80;99.90;;;;;;4984626;28;20052;-76
2023/02/03 12:29:15;;;;;;;26.02;7.07;;;9.80;99.90;;;;;;5004251;28;20072;-76
2023/02/03 12:32:09;;;;;;;26.17;6.93;;;9.80;99.90;;;;;;4988756;28;20481;-77
2023/02/03 12:35:10;;;;;;;30.27;7.65;;;9.80;99.90;;;;;;4998494;28;20061;-76
2023/02/03 12:38:08;;;;;;;;;;;9.70;99.90;;;;;;5006205;28;20557;-75
2023/02/03 12:41:10;;;;;;;28.20;6.75;;;9.70;99.90;;;;;;4977415;28;19987;-76
2023/02/03 12:43:49;;;;;;;33.85;7.90;;;9.60;99.90;;;;;;5001662;28;20402;-81
2023/02/03 12:46:50;;;;;;;30.10;8.10;;;9.60;99.90;;;;;;5004377;28;20068;-81
2023/02/03 12:49:28;;;;;;;30.65;7.65;;;9.60;99.90;;;;;;5006268;28;20056;-77
2023/02/03 12:52:17;;;;;;;35.00;8.48;;;9.60;99.90;;;;;;5016658;28;20357;-80
2023/02/03 12:54:59;;;;;;;33.50;7.90;;;9.50;99.90;;;;;;4991039;28;20201;-77
2023/02/03 12:57:38;;;;;;;37.97;8.63;;;9.50;99.90;;;;;;5000826;28;20567;-75
2023/02/03 13:00:32;;;;;;;32.63;7.45;;;9.50;99.90;;;;;;5007764;28;20171;-79
2023/02/03 13:03:06;;;;;;;30.50;7.93;;;9.50;99.90;;;;;;4982388;28;20136;-79
2023/02/03 13:05:41;;;;;;;31.35;8.10;;;9.50;99.90;;;;;;5006275;28;20091;-79
2023/02/03 13:08:31;;;;;;;30.08;7.60;;;9.50;99.90;;;;;;4989300;28;20044;-79
2023/02/03 13:11:37;;;;;;;33.47;7.65;;;9.50;99.90;;;;;;4992792;28;20047;-76
2023/02/03 13:14:19;;;;;;;33.88;7.80;;;9.50;99.90;;;;;;4992475;28;20057;-79
2023/02/03 13:16:51;;;;;;;25.92;6.63;;;9.50;99.90;;;;;;4992325;28;20386;-77